createdAt,value
2019-02-09T00:00:46.569Z,201.47
2019-02-09T00:03:17.464Z,167.00
2019-02-09T00:05:48.645Z,185.63
2019-02-09T00:08:19.515Z,180.47
2019-02-09T00:10:50.468Z,174.20
2019-02-09T00:13:21.495Z,181.10
2019-02-09T00:15:54.764Z,167.67
2019-02-09T00:18:25.706Z,169.53
2019-02-09T00:20:59.145Z,178.87
2019-02-09T00:23:30.299Z,176.17
2019-02-09T00:32:36.888Z,196.33
2019-02-09T00:35:08.028Z,176.13
2019-02-09T00:37:39.345Z,185.63
2019-02-09T00:40:11.391Z,184.63
2019-02-09T00:42:42.277Z,176.23
2019-02-09T00:45:13.392Z,193.53
2019-02-09T00:47:44.200Z,176.67
2019-02-09T00:50:15.798Z,189.43
2019-02-09T00:52:46.772Z,177.37
2019-02-09T00:55:18.496Z,188.67
2019-02-09T00:57:49.119Z,183.67
2019-02-09T01:00:22.790Z,181.03
2019-02-09T01:02:53.451Z,173.70
2019-02-09T01:05:27.501Z,176.73
2019-02-09T01:07:58.747Z,177.97
2019-02-09T01:10:31.044Z,202.57
2019-02-09T01:13:01.714Z,224.37
2019-02-09T01:15:32.570Z,203.63
2019-02-09T01:18:03.326Z,185.00
2019-02-09T01:20:34.162Z,145.30
2019-02-09T01:23:05.176Z,191.60
2019-02-09T01:25:36.282Z,169.90
2019-02-09T01:28:07.444Z,206.13
2019-02-09T01:30:38.725Z,182.17
2019-02-09T01:33:09.199Z,208.80
2019-02-09T01:35:41.570Z,198.40
2019-02-09T01:38:12.646Z,193.30
2019-02-09T01:40:43.827Z,175.37
2019-02-09T01:43:14.761Z,164.07
2019-02-09T01:45:45.709Z,209.73
2019-02-09T01:48:18.067Z,211.33
2019-02-09T01:50:48.610Z,213.23
2019-02-09T01:53:19.877Z,188.00
2019-02-09T01:55:50.554Z,192.07
2019-02-09T01:58:21.357Z,192.10
2019-02-09T02:00:52.000Z,174.50
2019-02-09T02:03:23.103Z,159.10
2019-02-09T02:05:53.897Z,218.30
2019-02-09T02:08:24.859Z,199.13
2019-02-09T02:10:55.701Z,157.47
2019-02-09T02:13:26.691Z,194.07
2019-02-09T02:15:57.675Z,175.10
2019-02-09T02:18:28.338Z,199.17
2019-02-09T02:20:59.334Z,184.23
2019-02-09T02:23:29.989Z,195.67
2019-02-09T02:26:00.594Z,202.77
2019-02-09T02:28:31.228Z,172.77
2019-02-09T02:31:02.399Z,203.53
2019-02-09T02:33:33.396Z,150.10
2019-02-09T02:36:04.932Z,175.60
2019-02-09T02:38:35.787Z,177.00
2019-02-09T02:41:08.295Z,201.63
2019-02-09T02:43:39.064Z,199.60
2019-02-09T02:46:10.848Z,257.13
2019-02-09T02:48:41.892Z,260.97
2019-02-09T02:51:12.590Z,254.03
2019-02-09T02:53:44.416Z,232.63
2019-02-09T02:56:15.268Z,264.30
2019-02-09T02:58:46.335Z,290.57
2019-02-09T03:01:17.237Z,270.87
2019-02-09T03:03:48.207Z,237.13
2019-02-09T03:06:19.348Z,232.43
2019-02-09T03:08:49.995Z,195.90
2019-02-09T03:11:20.929Z,212.63
2019-02-09T03:13:52.079Z,204.20
2019-02-09T03:16:22.917Z,230.63
2019-02-09T03:18:53.861Z,250.40
2019-02-09T03:21:25.053Z,278.10
2019-02-09T03:23:56.172Z,268.00
2019-02-09T03:26:27.049Z,297.60
2019-02-09T03:28:57.919Z,272.77
2019-02-09T03:31:28.458Z,258.80
2019-02-09T03:34:07.696Z,231.27
2019-02-09T03:36:38.491Z,235.40
2019-02-09T03:39:09.315Z,246.40
2019-02-09T03:41:40.122Z,263.53
2019-02-09T03:44:11.173Z,272.90
2019-02-09T03:46:42.760Z,277.53
2019-02-09T03:49:14.061Z,266.93
2019-02-09T03:51:45.144Z,243.20
2019-02-09T03:54:16.824Z,244.40
2019-02-09T03:56:47.634Z,255.20
2019-02-09T03:59:18.503Z,230.50
2019-02-09T04:01:49.406Z,224.77
2019-02-09T04:04:20.301Z,277.20
2019-02-09T04:06:51.087Z,268.20
2019-02-09T04:09:22.136Z,284.60
2019-02-09T04:11:53.074Z,257.50
2019-02-09T04:14:23.807Z,262.00
2019-02-09T04:16:54.564Z,247.00
2019-02-09T04:19:25.198Z,274.37
2019-02-09T04:21:55.778Z,244.67
2019-02-09T04:24:26.538Z,280.93
2019-02-09T04:26:57.551Z,192.00
2019-02-09T04:29:28.414Z,253.63
2019-02-09T04:31:59.339Z,229.60
2019-02-09T04:34:30.528Z,246.17
2019-02-09T04:37:01.421Z,256.90
2019-02-09T04:39:32.488Z,247.17
2019-02-09T04:42:03.197Z,245.20
2019-02-09T04:44:33.869Z,254.57
2019-02-09T04:47:04.950Z,245.13
2019-02-09T04:49:35.824Z,193.83
2019-02-09T04:52:06.900Z,227.07
2019-02-09T04:54:37.801Z,241.77
2019-02-09T04:57:08.705Z,256.77
2019-02-09T04:59:39.378Z,228.17
2019-02-09T05:02:10.645Z,239.77
2019-02-09T05:04:41.565Z,230.77
2019-02-09T05:07:12.296Z,253.13
2019-02-09T05:09:42.946Z,247.67
2019-02-09T05:12:14.125Z,236.27
2019-02-09T05:14:44.967Z,278.63
2019-02-09T05:17:15.735Z,225.30
2019-02-09T05:19:46.475Z,241.03
2019-02-09T05:22:17.836Z,263.47
2019-02-09T05:24:48.855Z,239.17
2019-02-09T05:27:19.390Z,225.70
2019-02-09T05:29:50.211Z,227.20
2019-02-09T05:32:21.615Z,206.87
2019-02-09T05:34:52.309Z,226.33
2019-02-09T05:37:23.232Z,216.80
2019-02-09T05:39:54.234Z,238.77
2019-02-09T05:42:25.224Z,232.77
2019-02-09T05:44:55.976Z,254.17
2019-02-09T05:47:27.520Z,255.13
2019-02-09T05:49:58.176Z,245.87
2019-02-09T05:52:28.737Z,222.20
2019-02-09T05:54:59.308Z,239.80
2019-02-09T05:57:30.021Z,217.97
2019-02-09T06:00:00.818Z,252.87
2019-02-09T06:02:31.549Z,278.47
2019-02-09T06:05:02.807Z,268.47
2019-02-09T06:07:33.875Z,249.13
2019-02-09T06:10:06.155Z,257.30
2019-02-09T06:12:36.670Z,258.37
2019-02-09T06:17:56.546Z,254.93
2019-02-09T06:20:27.733Z,251.10
2019-02-09T06:22:58.892Z,266.27
2019-02-09T06:25:31.041Z,236.23
2019-02-09T06:28:01.880Z,237.27
2019-02-09T06:30:33.259Z,263.00
2019-02-09T06:33:04.647Z,236.77
2019-02-09T06:35:35.555Z,244.10
2019-02-09T06:38:06.343Z,260.80
2019-02-09T06:40:37.005Z,237.27
2019-02-09T06:43:07.581Z,223.87
2019-02-09T06:45:38.244Z,271.03
2019-02-09T06:48:24.433Z,230.13
2019-02-09T06:50:56.725Z,241.80
2019-02-09T06:53:33.634Z,226.77
2019-02-09T06:56:04.447Z,225.30
2019-02-09T06:58:35.843Z,210.70
2019-02-09T07:01:06.548Z,224.63
2019-02-09T07:03:37.245Z,225.70
2019-02-09T07:06:07.989Z,207.57
2019-02-09T07:08:38.692Z,222.40
2019-02-09T07:11:09.678Z,224.07
2019-02-09T07:13:40.482Z,230.10
2019-02-09T07:16:11.338Z,225.80
2019-02-09T07:18:42.141Z,191.07
2019-02-09T07:21:12.829Z,181.07
2019-02-09T07:23:44.014Z,194.87
2019-02-09T07:26:14.600Z,223.80
2019-02-09T07:28:45.335Z,208.30
2019-02-09T07:31:15.947Z,194.60
2019-02-09T07:33:46.887Z,196.83
2019-02-09T07:36:17.425Z,203.03
2019-02-09T07:38:48.150Z,195.97
2019-02-09T07:41:19.546Z,207.50
2019-02-09T07:43:51.699Z,202.87
2019-02-09T07:46:22.816Z,190.83
2019-02-09T07:48:53.889Z,208.20
2019-02-09T07:51:24.563Z,207.60
2019-02-09T07:53:55.764Z,181.83
2019-02-09T07:56:26.636Z,218.07
2019-02-09T07:58:57.385Z,186.13
2019-02-09T08:01:28.541Z,210.10
2019-02-09T08:03:59.835Z,215.10
2019-02-09T08:06:30.656Z,212.90
2019-02-09T08:09:02.084Z,199.17
2019-02-09T08:11:34.184Z,217.37
2019-02-09T08:14:04.875Z,197.87
2019-02-09T08:16:35.459Z,179.70
2019-02-09T08:19:06.286Z,190.13
2019-02-09T08:21:37.219Z,174.57
2019-02-09T08:24:08.369Z,213.40
2019-02-09T08:26:38.958Z,204.37
2019-02-09T08:29:10.110Z,274.27
2019-02-09T08:31:40.825Z,223.13
2019-02-09T08:34:12.774Z,211.43
2019-02-09T08:36:43.416Z,181.77
2019-02-09T08:39:14.376Z,215.33
2019-02-09T08:41:45.199Z,219.53
2019-02-09T08:44:16.057Z,206.33
2019-02-09T08:46:46.870Z,191.03
2019-02-09T08:49:17.601Z,210.17
2019-02-09T08:51:48.894Z,175.13
2019-02-09T08:54:19.748Z,200.40
2019-02-09T08:56:50.768Z,216.73
2019-02-09T08:59:21.454Z,186.97
2019-02-09T09:01:52.051Z,210.40
2019-02-09T09:04:22.967Z,180.33
2019-02-09T09:06:53.627Z,198.57
2019-02-09T09:09:24.601Z,209.33
2019-02-09T09:11:55.105Z,190.50
2019-02-09T09:14:25.855Z,186.27
2019-02-09T09:16:56.977Z,200.70
2019-02-09T09:19:27.802Z,202.37
2019-02-09T09:21:58.479Z,180.17
2019-02-09T09:24:29.351Z,207.97
2019-02-09T09:26:59.894Z,202.03
2019-02-09T09:29:30.574Z,201.67
2019-02-09T09:32:01.347Z,188.07
2019-02-09T09:34:32.119Z,200.83
2019-02-09T09:37:03.138Z,192.43
2019-02-09T09:39:33.781Z,183.17
2019-02-09T09:42:04.526Z,203.63
2019-02-09T09:44:35.015Z,170.10
2019-02-09T09:47:06.475Z,195.33
2019-02-09T09:49:37.324Z,204.93
2019-02-09T09:52:10.288Z,182.27
2019-02-09T09:54:41.617Z,212.47
2019-02-09T09:57:12.506Z,191.43
2019-02-09T09:59:44.282Z,188.70
2019-02-09T10:02:15.150Z,195.20
2019-02-09T10:04:45.650Z,182.60
2019-02-09T10:07:16.307Z,165.97
2019-02-09T10:09:47.213Z,186.30
2019-02-09T10:12:17.991Z,183.77
2019-02-09T10:14:49.189Z,167.47
2019-02-09T10:17:19.717Z,178.63
2019-02-09T10:19:50.535Z,172.23
2019-02-09T10:22:21.420Z,164.57
2019-02-09T10:24:52.270Z,151.73
2019-02-09T10:27:23.209Z,168.47
2019-02-09T10:29:54.071Z,170.30
2019-02-09T10:32:26.319Z,164.53
2019-02-09T10:34:57.367Z,180.93
2019-02-09T10:37:28.579Z,178.23
2019-02-09T10:39:59.121Z,134.47
2019-02-09T10:42:30.149Z,149.90
2019-02-09T10:45:00.792Z,134.37
2019-02-09T10:47:32.189Z,109.00
2019-02-09T10:50:03.278Z,72.37
2019-02-09T10:52:34.139Z,62.80
2019-02-09T10:55:05.374Z,64.83
2019-02-09T10:57:37.390Z,58.07
2019-02-09T11:00:31.374Z,69.40
2019-02-09T11:03:02.348Z,57.07
2019-02-09T11:05:32.978Z,51.20
2019-02-09T11:08:05.789Z,52.13
2019-02-09T11:10:37.996Z,44.30
2019-02-09T11:13:09.451Z,53.17
2019-02-09T11:15:40.691Z,56.37
2019-02-09T11:18:11.503Z,42.83
2019-02-09T11:20:42.283Z,49.17
2019-02-09T11:23:13.822Z,48.57
2019-02-09T11:25:44.469Z,36.93
2019-02-09T11:28:15.355Z,31.43
2019-02-09T11:30:46.083Z,31.50
2019-02-09T11:33:16.551Z,29.40
2019-02-09T11:35:47.298Z,36.77
2019-02-09T11:38:19.240Z,29.77
2019-02-09T11:40:50.835Z,28.23
2019-02-09T11:43:21.915Z,18.33
2019-02-09T11:45:52.672Z,20.60
2019-02-09T11:48:23.232Z,23.40
2019-02-09T11:50:54.049Z,16.53
2019-02-09T11:53:24.884Z,16.17
2019-02-09T11:55:55.507Z,17.40
2019-02-09T11:58:26.248Z,46.10
2019-02-09T12:00:57.038Z,68.10
2019-02-09T12:03:27.852Z,70.33
2019-02-09T12:05:58.547Z,70.17
2019-02-09T12:08:29.385Z,84.00
2019-02-09T12:11:00.735Z,83.53
2019-02-09T12:13:31.744Z,88.93
2019-02-09T12:16:02.392Z,86.93
2019-02-09T12:18:33.074Z,92.50
2019-02-09T12:21:04.134Z,84.00
2019-02-09T12:23:34.778Z,67.07
2019-02-09T12:26:05.553Z,45.80
2019-02-09T12:28:36.372Z,29.20
2019-02-09T12:31:07.117Z,24.33
2019-02-09T12:33:37.740Z,23.93
2019-02-09T12:36:08.252Z,22.13
2019-02-09T12:38:39.158Z,19.50
2019-02-09T12:41:10.345Z,26.03
2019-02-09T12:43:40.997Z,18.43
2019-02-09T12:46:11.668Z,20.47
2019-02-09T12:48:42.424Z,18.77
2019-02-09T12:51:13.372Z,20.20
2019-02-09T12:53:45.221Z,21.67
2019-02-09T12:56:15.936Z,16.10
2019-02-09T12:58:48.069Z,17.43
2019-02-09T13:01:18.863Z,15.77
2019-02-09T13:03:49.445Z,22.23
2019-02-09T13:06:20.337Z,22.33
2019-02-09T13:08:53.398Z,23.80
2019-02-09T13:11:23.927Z,19.37
2019-02-09T13:13:55.337Z,24.20
2019-02-09T13:16:26.321Z,23.10
2019-02-09T13:18:57.589Z,29.43
2019-02-09T13:21:28.432Z,22.47
2019-02-09T13:23:59.913Z,29.47
2019-02-09T13:26:30.651Z,19.27
2019-02-09T13:29:08.723Z,18.03
2019-02-09T13:31:39.589Z,15.93
2019-02-09T13:34:10.424Z,17.03
2019-02-09T13:36:41.368Z,18.90
2019-02-09T13:39:12.270Z,16.53
2019-02-09T13:41:43.574Z,15.83
2019-02-09T13:44:14.329Z,14.37
2019-02-09T13:46:45.012Z,14.13
2019-02-09T13:49:15.702Z,20.27
2019-02-09T13:51:46.837Z,12.73
2019-02-09T13:54:17.656Z,15.07
2019-02-09T13:56:48.416Z,10.83
2019-02-09T13:59:19.369Z,14.30
2019-02-09T14:01:49.922Z,11.27
2019-02-09T14:04:20.764Z,22.90
2019-02-09T14:06:51.708Z,18.27
2019-02-09T14:09:22.582Z,10.30
2019-02-09T14:11:53.515Z,10.40
2019-02-09T14:20:02.009Z,12.13
2019-02-09T14:22:32.819Z,15.27
2019-02-09T14:25:03.905Z,13.00
2019-02-09T14:27:34.564Z,15.03
2019-02-09T14:30:08.127Z,15.73
2019-02-09T14:32:38.819Z,16.77
2019-02-09T14:35:10.535Z,19.43
2019-02-09T14:37:41.730Z,19.13
2019-02-09T14:40:18.390Z,17.20
2019-02-09T14:42:49.826Z,19.50
2019-02-09T14:45:23.069Z,18.73
2019-02-09T14:47:53.852Z,16.23
2019-02-09T14:50:24.986Z,15.90
2019-02-09T14:52:55.974Z,19.00
2019-02-09T14:55:29.147Z,24.13
2019-02-09T14:58:00.365Z,16.37
2019-02-09T15:00:34.044Z,15.83
2019-02-09T15:03:05.902Z,17.70
2019-02-09T15:05:36.786Z,19.23
2019-02-09T15:08:09.520Z,20.97
2019-02-09T15:10:40.368Z,21.00
2019-02-09T15:13:12.279Z,22.53
2019-02-09T15:16:12.952Z,20.47
2019-02-09T15:18:43.819Z,18.67
2019-02-09T15:21:14.500Z,20.37
2019-02-09T15:23:45.164Z,19.73
2019-02-09T15:26:16.176Z,20.87
2019-02-09T15:28:50.479Z,22.20
2019-02-09T15:31:21.407Z,24.80
2019-02-09T15:33:52.387Z,16.30
2019-02-09T15:36:24.770Z,15.60
2019-02-09T15:38:56.860Z,19.07
2019-02-09T15:41:27.486Z,20.23
2019-02-09T15:43:58.492Z,18.77
2019-02-09T15:46:29.385Z,23.40
2019-02-09T15:48:59.994Z,20.97
2019-02-09T15:51:30.848Z,23.27
2019-02-09T15:54:01.999Z,19.47
2019-02-09T15:56:33.123Z,20.97
2019-02-09T15:59:04.228Z,19.93
2019-02-09T16:01:34.799Z,22.42
2019-02-09T16:04:06.200Z,22.17
2019-02-09T16:06:37.135Z,22.57
2019-02-09T16:09:09.349Z,24.23
2019-02-09T16:11:40.109Z,26.83
2019-02-09T16:14:11.061Z,20.73
2019-02-09T16:16:41.679Z,26.00
2019-02-09T16:19:12.667Z,28.50
2019-02-09T16:21:43.608Z,22.47
2019-02-09T16:24:14.592Z,22.67
2019-02-09T16:26:45.544Z,22.53
2019-02-09T16:29:16.679Z,18.50
2019-02-09T16:31:47.831Z,24.40
2019-02-09T16:34:25.386Z,33.00
2019-02-09T16:36:51.275Z,34.53
2019-02-09T16:39:22.270Z,28.23
2019-02-09T16:41:52.959Z,29.20
2019-02-09T16:44:23.581Z,28.60
2019-02-09T16:46:54.246Z,26.77
2019-02-09T16:49:24.957Z,32.13
2019-02-09T16:51:56.822Z,26.17
2019-02-09T16:54:27.865Z,35.50
2019-02-09T16:56:58.980Z,29.17
2019-02-09T16:59:30.080Z,29.20
2019-02-09T17:02:01.003Z,24.90
2019-02-09T17:04:33.378Z,25.77
2019-02-09T17:07:04.230Z,26.83
2019-02-09T17:09:36.068Z,29.40
2019-02-09T17:12:06.890Z,29.33
2019-02-09T17:14:37.774Z,29.30
2019-02-09T17:17:08.510Z,31.67
2019-02-09T17:19:41.763Z,25.40
2019-02-09T17:22:12.727Z,29.27
2019-02-09T17:24:43.696Z,26.77
2019-02-09T17:27:14.678Z,29.30
2019-02-09T17:29:45.790Z,27.37
2019-02-09T17:32:16.654Z,29.40
2019-02-09T17:34:47.877Z,36.33
2019-02-09T17:37:18.755Z,36.17
2019-02-09T17:39:49.848Z,25.83
2019-02-09T17:42:20.796Z,28.27
2019-02-09T17:44:51.918Z,25.07
2019-02-09T17:47:23.440Z,35.80
2019-02-09T17:49:54.320Z,37.53
2019-02-09T17:52:25.191Z,35.03
2019-02-09T17:54:57.117Z,30.67
2019-02-09T17:57:27.592Z,33.70
2019-02-09T17:59:58.232Z,31.40
2019-02-09T18:02:28.758Z,30.20
2019-02-09T18:04:59.696Z,31.23
2019-02-09T18:07:30.291Z,28.07
2019-02-09T18:10:01.236Z,24.33
2019-02-09T18:12:32.330Z,28.10
2019-02-09T18:15:03.160Z,26.90
2019-02-09T18:17:34.078Z,29.77
2019-02-09T18:20:05.677Z,27.80
2019-02-09T18:22:36.551Z,29.77
2019-02-09T18:25:08.743Z,29.80
2019-02-09T18:27:40.633Z,28.53
2019-02-09T18:30:18.047Z,36.50
2019-02-09T18:32:50.825Z,29.47
2019-02-09T18:35:22.298Z,29.87
2019-02-09T18:37:53.468Z,36.97
2019-02-09T18:40:24.692Z,30.33
2019-02-09T18:42:55.858Z,30.93
2019-02-09T18:45:27.903Z,33.60
2019-02-09T18:47:59.363Z,38.20
2019-02-09T18:50:30.878Z,30.00
2019-02-09T18:53:02.429Z,33.30
2019-02-09T18:55:35.478Z,32.77
2019-02-09T18:58:09.299Z,35.60
2019-02-09T19:00:41.261Z,35.03
2019-02-09T19:03:16.485Z,29.77
2019-02-09T19:05:47.396Z,30.60
2019-02-09T19:08:18.168Z,27.43
2019-02-09T19:10:55.549Z,26.63
2019-02-09T19:13:26.648Z,31.67
2019-02-09T19:15:57.469Z,27.10
2019-02-09T19:18:29.421Z,31.70
2019-02-09T19:21:01.657Z,34.90
2019-02-09T19:23:33.632Z,37.33
2019-02-09T19:26:04.996Z,32.83
2019-02-09T19:28:35.907Z,30.07
2019-02-09T19:31:07.234Z,30.03
2019-02-09T19:33:38.444Z,32.37
2019-02-09T19:36:09.585Z,35.77
2019-02-09T19:38:40.736Z,37.27
2019-02-09T19:41:11.734Z,36.07
2019-02-09T19:43:42.588Z,35.57
2019-02-09T19:46:13.561Z,32.30
2019-02-09T19:48:44.641Z,32.53
2019-02-09T19:51:15.298Z,32.97
2019-02-09T19:53:45.881Z,29.67
2019-02-09T19:56:16.548Z,39.60
2019-02-09T19:58:54.510Z,31.97
2019-02-09T20:01:25.162Z,30.67
2019-02-09T20:03:57.879Z,35.07
2019-02-09T20:06:28.652Z,32.97
2019-02-09T20:08:59.535Z,31.27
2019-02-09T20:11:30.350Z,32.70
2019-02-09T20:14:01.370Z,30.27
2019-02-09T20:16:32.447Z,33.80
2019-02-09T20:19:03.347Z,29.70
2019-02-09T20:21:34.148Z,26.27
2019-02-09T20:24:05.331Z,34.13
2019-02-09T20:26:36.165Z,41.37
2019-02-09T20:29:06.723Z,29.77
2019-02-09T20:31:37.665Z,26.07
2019-02-09T20:34:09.806Z,27.17
2019-02-09T20:36:40.800Z,27.50
2019-02-09T20:39:11.780Z,27.53
2019-02-09T20:41:43.034Z,26.03
2019-02-09T20:44:13.999Z,29.37
2019-02-09T20:46:45.114Z,30.13
2019-02-09T20:49:16.046Z,30.27
2019-02-09T20:51:46.590Z,30.00
2019-02-09T20:54:17.326Z,33.67
2019-02-09T20:56:48.741Z,25.50
2019-02-09T20:59:19.347Z,25.30
2019-02-09T21:01:50.140Z,21.33
2019-02-09T21:04:21.150Z,27.90
2019-02-09T21:06:52.162Z,24.93
2019-02-09T21:09:23.381Z,26.30
2019-02-09T21:16:06.124Z,25.73
2019-02-09T21:17:45.267Z,22.20
2019-02-09T21:20:16.380Z,23.70
2019-02-09T21:22:47.286Z,27.00
2019-02-09T21:25:26.556Z,55.33
2019-02-09T21:27:57.319Z,25.43
2019-02-09T21:30:28.536Z,25.10
2019-02-09T21:32:59.519Z,24.80
2019-02-09T21:35:30.889Z,24.03
2019-02-09T21:38:02.068Z,23.73
2019-02-09T21:40:33.072Z,25.20
2019-02-09T21:43:05.601Z,26.83
2019-02-09T21:45:44.576Z,30.30
2019-02-09T21:48:09.512Z,28.77
2019-02-09T21:50:40.544Z,25.77
2019-02-09T21:53:14.265Z,30.20
2019-02-09T21:55:45.113Z,23.20
2019-02-09T21:58:15.826Z,24.97
2019-02-09T22:00:47.139Z,27.97
2019-02-09T22:03:17.965Z,24.43
2019-02-09T22:05:52.043Z,25.13
2019-02-09T22:08:21.429Z,25.23
2019-02-09T22:10:52.450Z,22.90
2019-02-09T22:13:24.276Z,29.40
2019-02-09T22:15:54.979Z,21.07
2019-02-09T22:18:25.987Z,22.67
2019-02-09T22:20:57.873Z,23.00
2019-02-09T22:23:28.602Z,23.80
2019-02-09T22:26:00.927Z,19.83
2019-02-09T22:28:31.761Z,24.93
2019-02-09T22:31:02.980Z,25.20
2019-02-09T22:33:34.001Z,21.87
2019-02-09T22:36:05.161Z,21.93
2019-02-09T22:38:36.014Z,26.10
2019-02-09T22:41:06.832Z,20.60
2019-02-09T22:43:37.821Z,20.23
2019-02-09T22:46:09.657Z,26.50
2019-02-09T22:48:40.225Z,25.23
2019-02-09T22:51:10.946Z,22.60
2019-02-09T22:53:41.908Z,19.10
2019-02-09T22:56:12.681Z,19.67
2019-02-09T22:58:43.700Z,18.77
2019-02-09T23:01:35.911Z,20.73
2019-02-09T23:04:28.882Z,22.50
2019-02-09T23:07:10.409Z,23.10
2019-02-09T23:09:41.498Z,18.87
2019-02-09T23:12:12.662Z,21.70
2019-02-09T23:14:43.289Z,22.57
2019-02-09T23:17:14.106Z,22.00
2019-02-09T23:19:45.044Z,20.90
2019-02-09T23:22:16.208Z,22.97
2019-02-09T23:24:47.023Z,19.20
2019-02-09T23:27:17.963Z,21.87
2019-02-09T23:29:48.841Z,29.63
2019-02-09T23:32:19.691Z,23.53
2019-02-09T23:34:50.429Z,21.20
2019-02-09T23:37:22.464Z,18.27
2019-02-09T23:39:53.670Z,20.80
2019-02-09T23:42:24.512Z,20.03
2019-02-09T23:44:55.457Z,24.57
2019-02-09T23:47:27.212Z,25.03
2019-02-09T23:49:58.056Z,25.83
2019-02-09T23:52:29.113Z,22.87
2019-02-09T23:54:59.747Z,22.57
2019-02-09T23:57:31.309Z,22.13
